Time;durP1;ratioP1;P1;durP2;ratioP2;P2;SDS_P1;SDS_P2;PMS_P1;PMS_P2;Temp;Humidity;BMP_temperature;BMP_pressure;BME280_temperature;BME280_humidity;BME280_pressure;Samples;Min_cycle;Max_cycle;Signal;HPM_P1;HPM_P2
2022/11/06 00:02:11;;;;;;;7.05;2.08;;;9.60;99.90;;;;;;5052390;28;20037;-66
2022/11/06 00:08:39;;;;;;;3.72;1.60;;;9.60;99.90;;;;;;5052212;28;20044;-66
2022/11/06 00:11:44;;;;;;;5.03;1.45;;;9.60;99.90;;;;;;5052290;28;20037;-66
2022/11/06 00:14:48;;;;;;;4.53;1.52;;;9.60;99.90;;;;;;5051409;28;20044;-65
2022/11/06 00:17:52;;;;;;;3.42;0.93;;;9.70;99.90;;;;;;5051692;28;20041;-66
2022/11/06 00:20:56;;;;;;;4.32;1.30;;;9.70;99.90;;;;;;5052116;28;20041;-65
2022/11/06 00:24:02;;;;;;;3.63;1.08;;;9.70;99.90;;;;;;5051232;28;20029;-65
2022/11/06 00:27:06;;;;;;;6.60;0.93;;;9.70;99.90;;;;;;5051808;28;20040;-65
2022/11/06 00:30:10;;;;;;;3.97;1.20;;;9.60;99.90;;;;;;5051894;28;20394;-66
2022/11/06 00:33:14;;;;;;;2.13;1.00;;;9.60;99.90;;;;;;5051313;28;20040;-66
2022/11/06 00:36:20;;;;;;;4.45;1.30;;;9.60;99.90;;;;;;5051201;28;20040;-66
2022/11/06 00:39:24;;;;;;;3.90;1.20;;;9.60;99.90;;;;;;5051550;28;20052;-66
2022/11/06 00:42:29;;;;;;;3.70;1.40;;;9.70;99.90;;;;;;5051688;28;20246;-65
2022/11/06 00:45:33;;;;;;;3.08;1.25;;;9.60;99.90;;;;;;5051319;28;20063;-65
2022/11/06 00:48:38;;;;;;;7.35;1.83;;;9.60;99.90;;;;;;5051872;28;20375;-66
2022/11/06 00:51:42;;;;;;;3.78;2.25;;;9.70;99.90;;;;;;5051781;28;20037;-66
2022/11/06 00:54:46;;;;;;;6.82;2.10;;;9.70;99.90;;;;;;5049867;28;20029;-65
2022/11/06 00:57:51;;;;;;;4.07;1.50;;;9.70;99.90;;;;;;5051791;28;20047;-65
2022/11/06 01:00:54;;;;;;;4.43;1.33;;;9.70;99.90;;;;;;5051915;28;20040;-66
2022/11/06 01:04:01;;;;;;;5.70;1.65;;;9.70;99.90;;;;;;5051401;28;20056;-66
2022/11/06 01:07:05;;;;;;;4.10;1.30;;;9.70;99.90;;;;;;5051684;28;20045;-65
2022/11/06 01:10:09;;;;;;;4.10;1.05;;;9.70;99.90;;;;;;5051692;28;20082;-66
2022/11/06 01:13:13;;;;;;;4.35;1.30;;;9.60;99.90;;;;;;5051314;28;20523;-65
2022/11/06 01:16:17;;;;;;;2.60;1.08;;;9.60;99.90;;;;;;5051265;28;20369;-66
2022/11/06 01:19:22;;;;;;;2.65;1.02;;;9.60;99.90;;;;;;5051553;28;20040;-66
2022/11/06 01:22:25;;;;;;;3.25;0.90;;;9.60;99.90;;;;;;5051571;28;20033;-66
2022/11/06 01:25:29;;;;;;;3.40;1.15;;;9.50;99.90;;;;;;5051328;28;20049;-66
2022/11/06 01:28:33;;;;;;;10.57;2.45;;;9.50;99.90;;;;;;5051891;28;20044;-66
2022/11/06 01:31:38;;;;;;;7.15;2.70;;;9.50;99.90;;;;;;5055522;28;20048;-66
2022/11/06 01:34:42;;;;;;;5.10;2.25;;;9.50;99.90;;;;;;5055113;28;20048;-65
2022/11/06 01:37:46;;;;;;;8.68;3.03;;;9.50;99.90;;;;;;5055441;28;20033;-66
2022/11/06 01:40:50;;;;;;;6.38;2.47;;;9.60;99.90;;;;;;5055493;28;20517;-66
2022/11/06 01:44:00;;;;;;;7.78;2.72;;;9.60;99.90;;;;;;5055204;28;20040;-66
2022/11/06 01:47:18;;;;;;;27.48;4.03;;;9.50;99.90;;;;;;5055157;28;20037;-66
2022/11/06 01:50:23;;;;;;;5.88;2.08;;;9.50;99.90;;;;;;5055024;28;20047;-66
2022/11/06 01:53:27;;;;;;;5.78;1.40;;;9.50;99.90;;;;;;5054767;28;20042;-66
2022/11/06 01:56:32;;;;;;;5.45;1.40;;;9.40;99.90;;;;;;5054883;28;20394;-66
2022/11/06 01:59:41;;;;;;;5.63;1.45;;;9.40;99.90;;;;;;5055050;28;20495;-65
2022/11/06 02:02:46;;;;;;;4.65;1.17;;;9.40;99.90;;;;;;5054719;28;20037;-65
2022/11/06 02:05:50;;;;;;;3.75;1.33;;;9.40;99.90;;;;;;5054856;28;20040;-66
2022/11/06 02:08:54;;;;;;;7.80;1.25;;;9.40;99.90;;;;;;5054934;28;20048;-66
2022/11/06 02:12:11;;;;;;;3.33;1.10;;;9.40;99.90;;;;;;5054518;28;20512;-65
2022/11/06 02:15:25;;;;;;;3.58;1.30;;;9.30;99.90;;;;;;5054269;28;20028;-64
2022/11/06 02:18:39;;;;;;;4.72;1.20;;;9.30;99.90;;;;;;5054737;28;20052;-65
2022/11/06 02:22:25;;;;;;;2.08;1.13;;;9.30;99.90;;;;;;5054750;28;20204;-65
2022/11/06 02:25:59;;;;;;;2.53;1.10;;;9.20;99.90;;;;;;5040157;28;20051;-66
2022/11/06 02:29:08;;;;;;;3.42;1.40;;;9.20;99.90;;;;;;5054577;28;20041;-65
2022/11/06 02:32:40;;;;;;;3.83;1.10;;;9.10;99.90;;;;;;5054666;28;20394;-65
2022/11/06 02:35:47;;;;;;;4.75;1.02;;;9.10;99.90;;;;;;5054350;28;20052;-65
2022/11/06 02:38:56;;;;;;;2.30;1.13;;;9.10;99.90;;;;;;5054244;28;20044;-65
2022/11/06 02:42:04;;;;;;;3.38;1.20;;;9.10;99.90;;;;;;5054014;28;20025;-65
2022/11/06 02:45:11;;;;;;;6.43;1.40;;;9.00;99.90;;;;;;5054445;28;20593;-66
2022/11/06 02:48:20;;;;;;;2.95;1.00;;;9.10;99.90;;;;;;5054001;28;20067;-64
2022/11/06 02:51:28;;;;;;;4.35;1.25;;;9.20;99.90;;;;;;5053958;28;20051;-66
2022/11/06 02:54:37;;;;;;;8.40;2.70;;;9.30;99.90;;;;;;5053739;28;20510;-66
2022/11/06 02:57:48;;;;;;;8.27;2.75;;;9.40;99.90;;;;;;5052846;28;20044;-66
2022/11/06 03:00:59;;;;;;;6.32;1.92;;;9.40;99.90;;;;;;5053830;28;20029;-66
2022/11/06 03:04:09;;;;;;;4.22;1.75;;;9.30;99.90;;;;;;5053752;28;20037;-64
2022/11/06 03:07:30;;;;;;;5.68;1.35;;;9.30;99.90;;;;;;5053954;28;20036;-67
2022/11/06 03:11:02;;;;;;;6.43;2.28;;;9.20;99.90;;;;;;5053466;28;20045;-66
2022/11/06 03:14:45;;;;;;;4.18;1.20;;;9.20;99.90;;;;;;5054846;28;20041;-66
2022/11/06 03:17:55;;;;;;;3.92;1.45;;;9.10;99.90;;;;;;4996447;28;20144;-66
2022/11/06 03:21:05;;;;;;;5.57;1.10;;;9.00;99.90;;;;;;5053324;28;20041;-66
2022/11/06 03:24:19;;;;;;;4.75;1.38;;;9.00;99.90;;;;;;5053077;28;20044;-65
2022/11/06 03:27:32;;;;;;;10.35;2.22;;;8.90;99.90;;;;;;5053310;28;20390;-65
2022/11/06 03:30:42;;;;;;;7.47;1.38;;;8.90;99.90;;;;;;5053423;28;20048;-65
2022/11/06 03:33:54;;;;;;;3.25;1.25;;;8.90;99.90;;;;;;5053089;28;20040;-65
2022/11/06 03:37:15;;;;;;;3.10;0.90;;;8.90;99.90;;;;;;5053198;28;20408;-65
2022/11/06 03:40:22;;;;;;;20.92;2.20;;;8.80;99.90;;;;;;5053179;28;20045;-65
2022/11/06 03:43:33;;;;;;;1.88;1.17;;;8.80;99.90;;;;;;5052780;28;20040;-66
2022/11/06 03:46:43;;;;;;;5.35;1.27;;;8.70;99.90;;;;;;5053136;28;20048;-65
2022/11/06 03:50:22;;;;;;;7.68;1.25;;;8.70;99.90;;;;;;5053057;28;20392;-66
2022/11/06 03:53:44;;;;;;;10.38;1.30;;;8.70;99.90;;;;;;5052554;28;20045;-65
2022/11/06 03:57:03;;;;;;;5.75;1.48;;;8.70;99.90;;;;;;5052667;28;20065;-66
2022/11/06 04:00:08;;;;;;;3.33;1.10;;;8.70;99.90;;;;;;5052738;28;20025;-65
2022/11/06 04:03:28;;;;;;;3.33;1.40;;;8.70;99.90;;;;;;5052568;28;20033;-66
2022/11/06 04:06:41;;;;;;;3.15;1.42;;;8.70;99.90;;;;;;5052773;28;20044;-65
2022/11/06 04:16:40;;;;;;;3.42;1.40;;;8.70;99.90;;;;;;5052292;28;20033;-65
2022/11/06 04:20:01;;;;;;;3.72;1.10;;;8.70;99.90;;;;;;5052218;28;20037;-65
2022/11/06 04:23:32;;;;;;;3.67;1.95;;;8.60;99.90;;;;;;5052392;28;20503;-66
2022/11/06 04:26:45;;;;;;;3.13;1.42;;;8.60;99.90;;;;;;5052363;28;20050;-65
2022/11/06 04:30:01;;;;;;;3.05;1.20;;;8.50;99.90;;;;;;5052044;28;20043;-66
2022/11/06 04:33:15;;;;;;;2.65;1.35;;;8.50;99.90;;;;;;5052356;28;20040;-66
2022/11/06 04:36:31;;;;;;;6.60;1.10;;;8.50;99.90;;;;;;5051938;28;20073;-65
2022/11/06 04:40:30;;;;;;;3.83;1.30;;;8.60;99.90;;;;;;5052010;28;20045;-65
2022/11/06 04:43:51;;;;;;;6.65;1.60;;;8.60;99.90;;;;;;5043891;28;20376;-66
2022/11/06 04:47:20;;;;;;;6.10;1.55;;;8.50;99.90;;;;;;5051920;28;20046;-66
2022/11/06 04:50:26;;;;;;;3.95;1.42;;;8.50;99.90;;;;;;5051453;28;20048;-66
2022/11/06 04:53:32;;;;;;;2.95;1.45;;;8.50;99.90;;;;;;5051714;28;20388;-66
2022/11/06 04:56:37;;;;;;;5.90;1.00;;;8.50;99.90;;;;;;5051486;28;20037;-66
2022/11/06 04:59:41;;;;;;;3.97;1.10;;;8.50;99.90;;;;;;5051689;28;20416;-66
2022/11/06 05:02:44;;;;;;;2.72;1.10;;;8.40;99.90;;;;;;5051496;28;20037;-65
2022/11/06 05:05:48;;;;;;;2.95;1.17;;;8.50;99.90;;;;;;5051749;28;20044;-66
2022/11/06 05:08:52;;;;;;;4.20;1.25;;;8.40;99.90;;;;;;5051802;28;20044;-66
2022/11/06 05:11:56;;;;;;;2.63;1.10;;;8.50;99.90;;;;;;5051690;28;20123;-65
2022/11/06 05:15:00;;;;;;;2.55;1.17;;;8.40;99.90;;;;;;5051177;28;20054;-66
2022/11/06 05:18:05;;;;;;;2.65;1.30;;;8.40;99.90;;;;;;5051344;28;20515;-66
2022/11/06 05:24:49;;;;;;;6.85;1.58;;;8.30;99.90;;;;;;4954869;28;20043;-65
2022/11/06 05:27:52;;;;;;;9.20;1.83;;;8.30;99.90;;;;;;5051325;28;20044;-66
2022/11/06 05:30:56;;;;;;;10.10;1.60;;;8.20;99.90;;;;;;5051475;28;20048;-65
2022/11/06 05:34:01;;;;;;;6.38;2.13;;;8.30;99.90;;;;;;5051334;28;20047;-65
2022/11/06 05:37:04;;;;;;;2.33;1.08;;;8.30;99.90;;;;;;5051047;28;20037;-66
2022/11/06 05:40:09;;;;;;;5.85;1.27;;;8.40;99.90;;;;;;5051448;28;20037;-66
2022/11/06 05:43:13;;;;;;;1.55;1.00;;;8.40;99.90;;;;;;5051042;28;20044;-66
2022/11/06 05:46:17;;;;;;;5.88;1.30;;;8.30;99.90;;;;;;5051284;28;20049;-65
2022/11/06 05:49:21;;;;;;;6.88;1.50;;;8.20;99.90;;;;;;5051392;28;20041;-65
2022/11/06 05:52:25;;;;;;;3.67;1.23;;;8.10;99.90;;;;;;5051203;28;20396;-66
2022/11/06 05:55:29;;;;;;;9.20;1.20;;;8.10;99.90;;;;;;5050788;28;20048;-66
2022/11/06 05:58:33;;;;;;;7.30;1.45;;;8.10;99.90;;;;;;5051327;28;20044;-66
2022/11/06 06:01:36;;;;;;;4.35;1.75;;;8.10;99.90;;;;;;5051244;28;20048;-65
2022/11/06 06:04:40;;;;;;;6.28;1.77;;;8.20;99.90;;;;;;5050825;28;20037;-66
2022/11/06 06:07:44;;;;;;;3.60;1.25;;;8.20;99.90;;;;;;5050707;28;20052;-66
2022/11/06 06:10:49;;;;;;;5.32;1.10;;;8.30;99.90;;;;;;5050810;28;20048;-66
2022/11/06 06:13:52;;;;;;;3.45;1.25;;;8.40;99.90;;;;;;5050471;28;20106;-65
2022/11/06 06:16:56;;;;;;;1.75;0.90;;;8.40;99.90;;;;;;5054549;28;20037;-65
2022/11/06 06:20:00;;;;;;;5.60;1.10;;;8.40;99.90;;;;;;5054643;28;20400;-66
2022/11/06 06:23:05;;;;;;;2.83;1.00;;;8.40;99.90;;;;;;5054834;28;20036;-65
2022/11/06 06:26:09;;;;;;;4.13;1.50;;;8.40;99.90;;;;;;5054583;28;20044;-66
2022/11/06 06:29:13;;;;;;;1.92;1.00;;;8.50;99.90;;;;;;5054271;28;20046;-65
2022/11/06 06:32:17;;;;;;;2.65;1.10;;;8.60;99.90;;;;;;5054475;28;20405;-66
2022/11/06 06:35:21;;;;;;;1.73;1.05;;;9.60;99.90;;;;;;5054409;28;20040;-66
2022/11/06 06:38:25;;;;;;;3.92;0.80;;;12.50;99.90;;;;;;5054422;28;20048;-66
2022/11/06 06:41:29;;;;;;;3.78;1.25;;;15.20;99.90;;;;;;5054440;28;20519;-66
2022/11/06 06:44:33;;;;;;;2.65;0.98;;;17.60;99.90;;;;;;5054172;28;20056;-66
2022/11/06 06:47:37;;;;;;;3.35;1.00;;;19.50;99.90;;;;;;5054148;28;20388;-66
2022/11/06 06:50:41;;;;;;;6.45;3.75;;;20.60;99.30;;;;;;5054328;28;20044;-66
2022/11/06 06:53:45;;;;;;;3.10;0.90;;;21.30;98.30;;;;;;5053912;28;20051;-66
2022/11/06 06:56:49;;;;;;;1.48;0.90;;;22.30;96.90;;;;;;5053698;28;20044;-66
2022/11/06 06:59:53;;;;;;;5.22;1.65;;;22.60;95.60;;;;;;5041561;28;20060;-66
2022/11/06 07:02:57;;;;;;;1.90;1.20;;;23.00;94.70;;;;;;5054048;28;20044;-66
2022/11/06 07:06:01;;;;;;;4.13;2.40;;;23.20;94.10;;;;;;5053844;28;20036;-66
2022/11/06 07:09:05;;;;;;;7.88;1.95;;;23.80;93.90;;;;;;5053660;28;20044;-66
2022/11/06 07:12:09;;;;;;;2.80;1.55;;;24.70;92.70;;;;;;5053514;28;20052;-66
2022/11/06 07:15:14;;;;;;;5.72;1.30;;;25.80;92.20;;;;;;5052977;28;20055;-66
2022/11/06 07:18:18;;;;;;;3.78;1.08;;;26.80;90.50;;;;;;5053544;28;20051;-66
2022/11/06 07:21:21;;;;;;;7.63;1.70;;;27.50;89.00;;;;;;5053530;28;20048;-66
2022/11/06 07:24:25;;;;;;;2.38;1.58;;;27.60;87.70;;;;;;5053479;28;20052;-66
2022/11/06 07:27:29;;;;;;;3.08;1.52;;;28.20;87.10;;;;;;5052127;28;20041;-66
2022/11/06 07:30:35;;;;;;;4.63;2.15;;;29.00;83.60;;;;;;5053177;28;20494;-66
2022/11/06 07:33:39;;;;;;;4.47;1.35;;;29.40;81.80;;;;;;5053314;28;20048;-66
2022/11/06 07:36:43;;;;;;;1.65;0.60;;;30.00;81.10;;;;;;5052994;28;20039;-66
2022/11/06 07:39:48;;;;;;;3.90;0.90;;;30.30;80.10;;;;;;5053228;28;20048;-66
2022/11/06 07:42:52;;;;;;;2.97;1.05;;;30.50;78.70;;;;;;5053076;28;20063;-66
2022/11/06 07:45:59;;;;;;;3.55;1.10;;;31.00;78.80;;;;;;5052165;28;20044;-66
2022/11/06 07:49:03;;;;;;;4.20;1.00;;;31.20;77.70;;;;;;5052774;28;20407;-66
2022/11/06 07:52:07;;;;;;;2.97;1.00;;;31.40;77.20;;;;;;5053023;28;20044;-66
2022/11/06 07:55:11;;;;;;;2.15;0.70;;;32.00;76.00;;;;;;5052747;28;20530;-64
2022/11/06 07:58:15;;;;;;;3.38;0.90;;;32.40;75.00;;;;;;5052807;28;20044;-66
2022/11/06 08:01:19;;;;;;;2.90;1.00;;;33.20;74.00;;;;;;5052668;28;20060;-66
2022/11/06 08:04:23;;;;;;;2.70;0.93;;;34.10;73.40;;;;;;5052508;28;20044;-67
2022/11/06 08:07:27;;;;;;;3.40;0.88;;;34.60;72.20;;;;;;5052601;28;20507;-66
2022/11/06 08:10:31;;;;;;;2.85;1.10;;;35.00;70.60;;;;;;5052348;28;20047;-66
2022/11/06 08:13:35;;;;;;;3.47;1.30;;;35.00;69.20;;;;;;5052304;28;20051;-67
2022/11/06 08:16:39;;;;;;;4.22;0.77;;;35.10;68.90;;;;;;5052173;28;20503;-67
2022/11/06 08:19:43;;;;;;;3.10;0.80;;;35.00;68.30;;;;;;5039856;28;20040;-67
2022/11/06 08:22:47;;;;;;;3.60;0.80;;;34.60;67.60;;;;;;5052375;28;20052;-67
2022/11/06 08:25:55;;;;;;;2.88;0.80;;;29.60;70.50;;;;;;5052241;28;20064;-66
2022/11/06 08:28:59;;;;;;;1.35;0.60;;;27.90;72.40;;;;;;5052251;28;20048;-66
2022/11/06 08:32:03;;;;;;;1.83;0.60;;;30.20;71.70;;;;;;5052088;28;20040;-66
2022/11/06 08:35:08;;;;;;;2.97;0.75;;;30.90;71.00;;;;;;5051872;28;20068;-67
2022/11/06 08:38:12;;;;;;;1.80;0.63;;;31.90;68.90;;;;;;5051403;28;20044;-66
2022/11/06 08:41:16;;;;;;;1.90;0.60;;;31.70;70.00;;;;;;5052241;28;20396;-67
2022/11/06 08:44:22;;;;;;;4.70;0.77;;;30.40;70.70;;;;;;5051613;28;20044;-67
2022/11/06 08:47:26;;;;;;;3.78;0.88;;;31.20;71.50;;;;;;5051695;28;20052;-66
2022/11/06 08:50:31;;;;;;;2.03;0.90;;;28.00;70.10;;;;;;5051911;28;20056;-66
2022/11/06 08:53:35;;;;;;;1.50;0.80;;;28.90;72.60;;;;;;5051418;28;20048;-67
2022/11/06 08:56:39;;;;;;;1.23;0.70;;;31.30;70.20;;;;;;5051605;28;20048;-66
2022/11/06 08:59:43;;;;;;;1.05;0.52;;;33.20;69.10;;;;;;5051697;28;20122;-67
2022/11/06 09:02:47;;;;;;;4.13;1.20;;;34.80;67.70;;;;;;5051742;28;20491;-67
2022/11/06 09:05:51;;;;;;;3.90;0.95;;;32.10;65.70;;;;;;5051791;28;20387;-67
2022/11/06 09:08:55;;;;;;;3.72;0.57;;;30.10;68.90;;;;;;5051620;28;20036;-67
2022/11/06 09:12:01;;;;;;;2.88;1.38;;;32.80;66.90;;;;;;5051571;28;20040;-67
2022/11/06 09:15:05;;;;;;;2.40;0.93;;;33.20;67.90;;;;;;5050976;28;20048;-67
2022/11/06 09:18:10;;;;;;;2.90;1.08;;;34.80;67.00;;;;;;5051542;28;20039;-67
2022/11/06 09:21:14;;;;;;;2.22;0.80;;;36.80;66.10;;;;;;5050678;28;20040;-67
2022/11/06 09:24:19;;;;;;;1.95;0.90;;;38.30;63.40;;;;;;5051408;28;20039;-67
2022/11/06 09:27:22;;;;;;;2.92;0.93;;;37.80;63.00;;;;;;5051152;28;20056;-67
2022/11/06 09:30:31;;;;;;;4.55;1.13;;;36.50;61.20;;;;;;5051540;28;20064;-67
2022/11/06 09:33:35;;;;;;;1.35;0.60;;;37.20;60.80;;;;;;5050908;28;20048;-67
2022/11/06 09:36:38;;;;;;;5.47;0.90;;;38.10;61.10;;;;;;5038772;28;20045;-66
2022/11/06 09:39:43;;;;;;;3.40;0.80;;;39.30;60.40;;;;;;5051403;28;20036;-64
2022/11/06 09:42:53;;;;;;;3.05;0.77;;;40.40;60.00;;;;;;5051310;28;20044;-65
2022/11/06 09:46:05;;;;;;;1.27;0.60;;;41.00;58.70;;;;;;5051079;28;20040;-65
2022/11/06 09:49:19;;;;;;;1.85;0.60;;;41.20;58.00;;;;;;5051061;28;20506;-64
2022/11/06 09:52:29;;;;;;;1.45;0.65;;;40.80;56.80;;;;;;5055321;28;20048;-67
2022/11/06 09:55:38;;;;;;;1.67;0.70;;;39.30;57.50;;;;;;5054984;28;20381;-67
2022/11/06 09:58:43;;;;;;;1.67;0.70;;;39.60;57.10;;;;;;5042986;28;20056;-67
2022/11/06 10:01:53;;;;;;;2.53;0.60;;;39.90;56.90;;;;;;5055009;28;20040;-67
2022/11/06 10:05:36;;;;;;;2.90;0.50;;;39.60;55.80;;;;;;5054830;28;20044;-67
2022/11/06 10:08:42;;;;;;;4.13;0.70;;;40.10;56.00;;;;;;5054732;28;20056;-67
2022/11/06 10:12:15;;;;;;;1.95;0.70;;;40.60;55.00;;;;;;5054946;28;20044;-67
2022/11/06 10:15:48;;;;;;;1.58;0.80;;;40.10;54.40;;;;;;5054219;28;20070;-68
2022/11/06 10:18:58;;;;;;;1.45;0.73;;;39.40;54.30;;;;;;5054733;28;20051;-67
2022/11/06 10:22:09;;;;;;;1.52;0.60;;;38.50;54.70;;;;;;5054749;28;20036;-67
2022/11/06 10:25:21;;;;;;;2.63;0.57;;;38.60;54.50;;;;;;5054377;28;20032;-67
2022/11/06 10:28:42;;;;;;;2.35;0.50;;;38.10;53.60;;;;;;5054707;28;20040;-66
2022/11/06 10:32:17;;;;;;;2.50;0.73;;;38.40;53.80;;;;;;5054426;28;20040;-66
2022/11/06 10:35:23;;;;;;;1.65;0.60;;;38.50;53.90;;;;;;5053744;28;20060;-67
2022/11/06 10:38:32;;;;;;;1.88;0.55;;;38.10;53.70;;;;;;5053880;28;20048;-67
2022/11/06 10:41:37;;;;;;;1.83;0.60;;;37.80;53.60;;;;;;5054306;28;20048;-67
2022/11/06 10:44:48;;;;;;;0.93;0.50;;;36.60;53.40;;;;;;5053966;28;20048;-67
2022/11/06 10:48:02;;;;;;;2.15;0.55;;;37.50;54.20;;;;;;5053870;28;20036;-66
2022/11/06 10:51:28;;;;;;;3.38;0.70;;;38.00;52.90;;;;;;5053889;28;20048;-66
2022/11/06 10:54:41;;;;;;;2.05;0.90;;;37.90;53.80;;;;;;5053709;28;20044;-68
2022/11/06 10:58:01;;;;;;;2.65;0.80;;;37.30;55.80;;;;;;5052762;28;20044;-67
2022/11/06 11:01:11;;;;;;;2.05;0.68;;;35.90;55.10;;;;;;5044037;28;20052;-66
2022/11/06 11:04:15;;;;;;;2.90;1.02;;;34.60;54.00;;;;;;5053605;28;20036;-66
2022/11/06 11:07:19;;;;;;;3.17;0.80;;;34.50;55.20;;;;;;5053570;28;20044;-66
2022/11/06 11:10:22;;;;;;;2.10;0.80;;;35.50;54.00;;;;;;5054005;28;20392;-68
2022/11/06 11:13:26;;;;;;;3.35;0.85;;;35.40;52.80;;;;;;5052940;28;20048;-67
2022/11/06 11:16:38;;;;;;;0.90;0.50;;;34.10;54.50;;;;;;5053154;28;20044;-67
2022/11/06 11:19:43;;;;;;;0.70;0.40;;;35.10;50.80;;;;;;5054356;28;20048;-66
2022/11/06 11:23:24;;;;;;;2.42;0.95;;;34.90;52.10;;;;;;5041219;28;20503;-66
2022/11/06 11:26:31;;;;;;;2.83;1.67;;;34.80;54.00;;;;;;5048084;28;20040;-66
2022/11/06 11:29:49;;;;;;;2.58;1.40;;;34.30;55.60;;;;;;5036814;28;20036;-67
2022/11/06 11:32:54;;;;;;;0.95;0.50;;;31.70;58.40;;;;;;5040959;28;20071;-66
2022/11/06 11:35:58;;;;;;;1.35;0.60;;;33.20;53.10;;;;;;5053049;28;20498;-67
2022/11/06 11:39:02;;;;;;;1.75;0.70;;;33.60;53.00;;;;;;5053204;28;20043;-66
2022/11/06 11:42:28;;;;;;;2.05;0.80;;;32.80;54.40;;;;;;5053187;28;20044;-67
2022/11/06 11:45:33;;;;;;;2.95;1.05;;;32.20;55.80;;;;;;5052340;28;20035;-67
2022/11/06 11:49:04;;;;;;;3.50;1.13;;;32.90;55.70;;;;;;5049875;28;20052;-66
2022/11/06 11:52:15;;;;;;;2.10;0.82;;;31.50;53.50;;;;;;5051405;28;20044;-66
2022/11/06 11:55:25;;;;;;;1.02;0.68;;;30.70;55.70;;;;;;5052196;28;20043;-66
2022/11/06 11:58:31;;;;;;;1.70;0.63;;;33.50;55.80;;;;;;5052409;28;20052;-67
2022/11/06 12:01:39;;;;;;;0.50;0.30;;;35.70;54.20;;;;;;5053136;28;20040;-68
2022/11/06 12:04:46;;;;;;;3.80;0.60;;;37.40;53.00;;;;;;5050577;28;20040;-67
2022/11/06 12:07:56;;;;;;;0.73;0.50;;;37.60;52.80;;;;;;5047881;28;20475;-67
2022/11/06 12:11:05;;;;;;;1.85;0.47;;;38.20;52.90;;;;;;5049626;28;20044;-67
2022/11/06 12:14:17;;;;;;;1.98;0.63;;;37.10;53.20;;;;;;5051122;28;20060;-67
2022/11/06 12:17:23;;;;;;;2.58;0.68;;;37.30;52.90;;;;;;5046807;28;20044;-66
2022/11/06 12:20:42;;;;;;;2.00;0.60;;;36.50;53.20;;;;;;5045961;28;20032;-67
2022/11/06 12:24:15;;;;;;;3.75;0.60;;;35.00;53.30;;;;;;5039443;28;20040;-67
2022/11/06 12:27:26;;;;;;;4.53;1.00;;;33.80;54.80;;;;;;5051445;28;20071;-66
2022/11/06 12:30:31;;;;;;;0.95;0.52;;;34.40;54.50;;;;;;5032352;28;20040;-67
2022/11/06 12:33:38;;;;;;;2.78;0.60;;;34.00;53.70;;;;;;5040669;28;20471;-66
2022/11/06 12:36:57;;;;;;;0.75;0.35;;;34.20;55.10;;;;;;5046581;28;20044;-66
2022/11/06 12:40:24;;;;;;;1.27;0.45;;;34.40;54.90;;;;;;5051557;28;20047;-66
2022/11/06 12:43:36;;;;;;;1.08;0.50;;;33.00;55.30;;;;;;5050886;28;20040;-66
2022/11/06 12:46:52;;;;;;;2.17;0.77;;;32.20;56.00;;;;;;5051428;28;20044;-66
2022/11/06 12:50:19;;;;;;;0.70;0.50;;;31.80;55.40;;;;;;5051417;28;20044;-67
2022/11/06 12:53:32;;;;;;;0.90;0.40;;;32.40;55.70;;;;;;5050925;28;20040;-66
2022/11/06 12:56:51;;;;;;;4.63;1.15;;;32.00;55.30;;;;;;5051103;28;20036;-65
2022/11/06 13:00:04;;;;;;;0.85;0.50;;;31.60;55.60;;;;;;5051546;28;20507;-65
2022/11/06 13:03:45;;;;;;;1.73;0.50;;;32.20;55.40;;;;;;5050714;28;20040;-65
2022/11/06 13:06:58;;;;;;;1.42;0.60;;;32.60;55.60;;;;;;5050167;28;20393;-66
2022/11/06 13:10:08;;;;;;;5.38;0.80;;;33.30;55.60;;;;;;5040875;28;20389;-66
2022/11/06 13:13:40;;;;;;;4.07;0.80;;;33.30;55.50;;;;;;5051331;28;20052;-65
2022/11/06 13:16:53;;;;;;;1.38;0.50;;;32.70;55.10;;;;;;5049979;28;20554;-65
2022/11/06 13:20:13;;;;;;;2.17;1.00;;;32.70;55.30;;;;;;5047062;28;20032;-66
2022/11/06 13:23:31;;;;;;;1.05;0.68;;;32.60;55.40;;;;;;5042081;28;20043;-64
2022/11/06 13:26:41;;;;;;;6.05;1.00;;;33.10;55.30;;;;;;5043875;28;20095;-65
2022/11/06 13:29:46;;;;;;;1.30;0.57;;;32.80;55.40;;;;;;5045195;28;20395;-66
2022/11/06 13:33:09;;;;;;;5.70;0.90;;;32.60;55.10;;;;;;5041100;28;20040;-65
2022/11/06 13:36:14;;;;;;;1.88;0.65;;;32.30;55.60;;;;;;5050852;28;20051;-65
2022/11/06 13:39:37;;;;;;;3.55;0.82;;;31.80;55.70;;;;;;5050555;28;20056;-65
2022/11/06 13:42:58;;;;;;;1.17;0.60;;;31.00;56.30;;;;;;5050938;28;20036;-65
2022/11/06 13:46:54;;;;;;;3.88;0.93;;;30.70;57.10;;;;;;5051284;28;20043;-65
2022/11/06 13:50:37;;;;;;;2.80;0.80;;;30.50;56.60;;;;;;5031958;28;20044;-65
2022/11/06 13:54:02;;;;;;;2.92;0.95;;;30.00;56.90;;;;;;5048057;28;20384;-66
2022/11/06 13:57:24;;;;;;;1.85;0.60;;;29.50;57.60;;;;;;5049764;28;20064;-65
2022/11/06 14:00:47;;;;;;;1.58;0.60;;;29.10;57.40;;;;;;5043668;28;20507;-66
2022/11/06 14:04:28;;;;;;;2.78;0.80;;;28.30;58.40;;;;;;5035078;28;20048;-66
2022/11/06 14:07:33;;;;;;;1.27;0.77;;;27.90;60.00;;;;;;5051241;28;20052;-66
2022/11/06 14:10:45;;;;;;;1.85;0.60;;;27.90;59.60;;;;;;5042051;28;20298;-65
2022/11/06 14:14:03;;;;;;;1.88;1.00;;;27.20;59.70;;;;;;5048830;28;20044;-66
2022/11/06 14:17:15;;;;;;;3.15;1.10;;;26.40;61.10;;;;;;5047467;28;20044;-65
2022/11/06 14:20:36;;;;;;;3.08;0.80;;;26.30;61.30;;;;;;5040358;28;20056;-65
2022/11/06 14:23:53;;;;;;;2.53;0.90;;;26.10;61.40;;;;;;5039269;28;20048;-65
2022/11/06 14:26:59;;;;;;;3.65;1.02;;;26.00;62.10;;;;;;5048957;28;20064;-65
2022/11/06 14:30:13;;;;;;;1.55;0.90;;;25.60;63.10;;;;;;5036722;28;20048;-65
2022/11/06 14:33:39;;;;;;;2.05;1.00;;;25.40;62.70;;;;;;5049808;28;20479;-66
2022/11/06 14:36:43;;;;;;;2.40;1.08;;;25.10;63.10;;;;;;5051356;28;20052;-64
2022/11/06 14:39:53;;;;;;;2.80;0.77;;;24.70;63.80;;;;;;5050701;28;20051;-65
2022/11/06 14:42:57;;;;;;;3.58;0.98;;;24.70;64.20;;;;;;5054250;28;20044;-65
2022/11/06 14:46:18;;;;;;;2.03;1.00;;;24.70;64.50;;;;;;5052517;28;20044;-65
2022/11/06 14:49:47;;;;;;;2.83;1.00;;;24.50;64.10;;;;;;5044123;28;20491;-66
2022/11/06 14:52:59;;;;;;;3.08;1.17;;;23.80;65.10;;;;;;5050697;28;20051;-66
2022/11/06 14:56:07;;;;;;;2.28;1.10;;;22.50;67.10;;;;;;5052959;28;20064;-66
2022/11/06 14:59:28;;;;;;;3.83;1.35;;;21.20;69.20;;;;;;5053349;28;20048;-68
2022/11/06 15:02:34;;;;;;;3.42;1.00;;;20.20;71.30;;;;;;5054156;28;20040;-68
2022/11/06 15:05:38;;;;;;;3.67;0.95;;;19.40;73.00;;;;;;5053055;28;20044;-66
2022/11/06 15:08:45;;;;;;;1.40;0.95;;;18.70;74.10;;;;;;5053608;28;20046;-67
2022/11/06 15:11:53;;;;;;;2.33;1.20;;;18.30;76.00;;;;;;5053801;28;20048;-67
2022/11/06 15:15:02;;;;;;;3.50;1.33;;;18.00;77.00;;;;;;5053626;28;20050;-68
2022/11/06 15:18:10;;;;;;;4.85;1.27;;;17.80;76.80;;;;;;5053670;28;20044;-67
2022/11/06 15:21:22;;;;;;;1.63;1.00;;;17.80;77.60;;;;;;5053426;28;20041;-67
2022/11/06 15:24:41;;;;;;;2.42;1.10;;;17.50;78.30;;;;;;5053517;28;20040;-66
2022/11/06 15:28:17;;;;;;;1.92;1.20;;;17.20;79.40;;;;;;5053652;28;20507;-67
2022/11/06 15:31:22;;;;;;;2.17;1.30;;;16.90;80.40;;;;;;5053720;28;20052;-67
2022/11/06 15:34:36;;;;;;;2.80;1.20;;;16.90;81.40;;;;;;5053002;28;20036;-67
2022/11/06 15:37:44;;;;;;;1.88;1.02;;;17.00;81.20;;;;;;5052940;28;20040;-66
2022/11/06 15:40:52;;;;;;;2.67;1.05;;;17.00;81.40;;;;;;5053381;28;20057;-66
2022/11/06 15:43:56;;;;;;;2.50;1.33;;;16.80;82.80;;;;;;5053258;28;20040;-66
2022/11/06 15:47:00;;;;;;;5.22;2.65;;;16.50;83.20;;;;;;5052607;28;20091;-66
2022/11/06 15:50:23;;;;;;;5.57;2.78;;;16.20;85.10;;;;;;5053126;28;20048;-66
2022/11/06 15:53:28;;;;;;;5.43;3.50;;;15.90;85.50;;;;;;5052949;28;20048;-66
2022/11/06 15:56:34;;;;;;;3.45;1.95;;;15.70;87.60;;;;;;5053175;28;20043;-67
2022/11/06 15:59:39;;;;;;;8.73;5.07;;;15.50;87.60;;;;;;5040851;28;20040;-67
2022/11/06 16:02:58;;;;;;;29.00;15.73;;;15.20;88.50;;;;;;5052735;28;20044;-67
2022/11/06 16:06:03;;;;;;;8.88;4.78;;;15.00;89.70;;;;;;5052753;28;20404;-66
2022/11/06 16:09:15;;;;;;;64.20;34.47;;;14.90;90.60;;;;;;5052728;28;20035;-66
2022/11/06 16:12:19;;;;;;;;;;;14.80;91.00;;;;;;5053260;28;20400;-66
2022/11/06 16:18:48;;;;;;;9.02;5.07;;;14.60;91.60;;;;;;5052574;28;20036;-66
2022/11/06 16:21:57;;;;;;;6.88;3.85;;;14.50;91.70;;;;;;5052636;28;20511;-66
2022/11/06 16:25:04;;;;;;;7.43;3.83;;;14.40;92.20;;;;;;5052594;28;20044;-67
2022/11/06 16:28:18;;;;;;;6.32;3.72;;;14.30;92.70;;;;;;5052357;28;20052;-67
2022/11/06 16:31:26;;;;;;;12.27;6.93;;;14.10;93.30;;;;;;5052432;28;20048;-67
2022/11/06 16:34:31;;;;;;;10.77;6.50;;;14.00;93.40;;;;;;5052074;28;20047;-66
2022/11/06 16:37:36;;;;;;;8.68;4.00;;;13.90;93.90;;;;;;5052098;28;20056;-66
2022/11/06 16:40:49;;;;;;;11.18;4.88;;;13.70;94.30;;;;;;5052178;28;20079;-67
2022/11/06 16:44:26;;;;;;;10.50;6.55;;;13.60;94.70;;;;;;5052370;28;20499;-66
2022/11/06 16:47:30;;;;;;;8.27;3.75;;;13.60;94.90;;;;;;5052018;28;20040;-67
2022/11/06 16:50:51;;;;;;;10.23;4.78;;;13.50;95.30;;;;;;5050861;28;20056;-67
2022/11/06 16:54:00;;;;;;;10.40;5.43;;;13.40;95.50;;;;;;5051675;28;20048;-67